Time;durP1;ratioP1;P1;durP2;ratioP2;P2;SDS_P1;SDS_P2;PMS_P1;PMS_P2;Temp;Humidity;BMP_temperature;BMP_pressure;BME280_temperature;BME280_humidity;BME280_pressure;Samples;Min_cycle;Max_cycle;Signal;HPM_P1;HPM_P2
2021/11/22 00:00:45;;;;;;;7.90;4.87;;;4.10;99.90;;;;;;6182949;23;20504;-81
2021/11/22 00:03:12;;;;;;;6.33;4.73;;;4.00;99.90;;;;;;6209475;23;20154;-81
2021/11/22 00:05:38;;;;;;;10.07;5.03;;;3.90;99.90;;;;;;6182703;23;20204;-81
2021/11/22 00:08:05;;;;;;;7.93;4.90;;;3.80;99.90;;;;;;6209524;23;20155;-79
2021/11/22 00:10:31;;;;;;;8.00;5.27;;;3.70;99.90;;;;;;6182800;23;20158;-78
2021/11/22 00:12:57;;;;;;;7.27;4.20;;;3.60;99.90;;;;;;6182332;23;20218;-79
2021/11/22 00:15:23;;;;;;;7.00;4.33;;;3.50;99.90;;;;;;6208797;23;20680;-79
2021/11/22 00:17:48;;;;;;;7.27;4.57;;;3.50;99.90;;;;;;6182482;23;20664;-79
2021/11/22 00:20:17;;;;;;;6.77;4.47;;;3.50;99.90;;;;;;6182716;23;20162;-81
2021/11/22 00:22:43;;;;;;;7.17;4.17;;;3.50;99.90;;;;;;6209151;23;20181;-78
2021/11/22 00:25:11;;;;;;;4.73;3.87;;;3.40;99.90;;;;;;6182432;23;20326;-78
2021/11/22 00:27:37;;;;;;;5.13;4.00;;;3.30;99.90;;;;;;6182416;23;20167;-80
2021/11/22 00:30:05;;;;;;;7.77;4.20;;;3.40;99.90;;;;;;6209572;23;20234;-77
2021/11/22 00:32:33;;;;;;;6.80;3.80;;;3.40;99.90;;;;;;6182563;23;20166;-80
2021/11/22 00:34:59;;;;;;;5.23;3.83;;;3.30;99.90;;;;;;6209002;23;20881;-77
2021/11/22 00:37:31;;;;;;;7.37;4.20;;;3.20;99.90;;;;;;6209427;23;20154;-79
2021/11/22 00:39:56;;;;;;;5.23;4.23;;;3.20;99.90;;;;;;6182593;23;20157;-78
2021/11/22 00:42:22;;;;;;;6.13;3.73;;;3.20;99.90;;;;;;6183729;23;20166;-80
2021/11/22 00:44:47;;;;;;;7.77;4.07;;;3.30;99.90;;;;;;6183055;23;20288;-80
2021/11/22 00:47:13;;;;;;;6.63;4.23;;;3.30;99.90;;;;;;6183489;23;20155;-78
2021/11/22 00:49:39;;;;;;;5.73;4.20;;;3.50;99.90;;;;;;6181457;23;20501;-78
2021/11/22 00:52:05;;;;;;;6.20;3.83;;;3.60;99.90;;;;;;6181956;23;20162;-79
2021/11/22 00:54:31;;;;;;;6.43;3.53;;;3.70;99.90;;;;;;6207951;23;20244;-78
2021/11/22 00:56:57;;;;;;;7.03;4.30;;;3.80;99.90;;;;;;6181575;23;20486;-77
2021/11/22 00:59:23;;;;;;;6.87;4.20;;;3.80;99.90;;;;;;6208025;23;20150;-78
2021/11/22 01:01:50;;;;;;;7.87;4.17;;;3.90;99.90;;;;;;6180970;23;20162;-78
2021/11/22 01:04:17;;;;;;;6.23;4.10;;;3.90;99.90;;;;;;6181138;23;20188;-79
2021/11/22 01:06:42;;;;;;;6.17;4.37;;;3.90;99.90;;;;;;6208345;23;20158;-78
2021/11/22 01:09:08;;;;;;;6.70;4.60;;;3.90;99.90;;;;;;6208257;23;20182;-79
2021/11/22 01:11:34;;;;;;;7.57;4.13;;;4.00;99.90;;;;;;6181843;23;20162;-81
2021/11/22 01:14:00;;;;;;;8.57;4.10;;;4.00;99.90;;;;;;6209900;23;20581;-79
2021/11/22 01:16:28;;;;;;;6.40;3.70;;;4.10;99.90;;;;;;6183583;23;20626;-82
2021/11/22 01:18:54;;;;;;;7.40;3.47;;;4.10;99.90;;;;;;6209161;23;20162;-79
2021/11/22 01:21:20;;;;;;;6.33;3.83;;;4.20;99.90;;;;;;6208987;23;20147;-81
2021/11/22 01:23:45;;;;;;;5.77;3.40;;;4.20;99.90;;;;;;6208619;23;20178;-81
2021/11/22 01:26:11;;;;;;;7.17;3.40;;;4.30;99.90;;;;;;6208580;23;20150;-79
2021/11/22 01:28:36;;;;;;;4.93;2.83;;;4.30;99.90;;;;;;6208722;23;20155;-80
2021/11/22 01:31:02;;;;;;;4.00;3.13;;;4.40;99.90;;;;;;6208562;23;20167;-79
2021/11/22 01:33:28;;;;;;;3.90;3.00;;;4.40;99.90;;;;;;6181772;23;20162;-77
2021/11/22 01:35:53;;;;;;;3.43;2.97;;;4.50;99.90;;;;;;6182433;23;20546;-80
2021/11/22 01:38:19;;;;;;;3.73;2.57;;;4.50;99.90;;;;;;6208338;23;20150;-79
2021/11/22 01:40:46;;;;;;;5.80;2.83;;;4.60;99.90;;;;;;6181929;23;20185;-81
2021/11/22 01:43:14;;;;;;;5.03;2.73;;;4.60;99.90;;;;;;6181953;23;20502;-78
2021/11/22 01:45:49;;;;;;;3.13;2.63;;;4.50;99.90;;;;;;6181962;23;20162;-80
2021/11/22 01:48:17;;;;;;;4.93;3.07;;;4.60;99.90;;;;;;6208624;23;20222;-79
2021/11/22 01:50:44;;;;;;;4.00;3.13;;;4.60;99.90;;;;;;6208780;23;20158;-81
2021/11/22 01:53:10;;;;;;;5.47;3.20;;;4.60;99.90;;;;;;6181446;23;20169;-78
2021/11/22 01:55:36;;;;;;;5.47;3.40;;;4.70;99.90;;;;;;6208384;23;20182;-77
2021/11/22 01:58:03;;;;;;;5.83;3.60;;;4.70;99.90;;;;;;6181671;23;20209;-81
2021/11/22 02:00:36;;;;;;;4.00;3.20;;;4.70;99.90;;;;;;6208945;23;20154;-80
2021/11/22 02:03:05;;;;;;;3.77;3.40;;;4.70;99.90;;;;;;6208085;23;20145;-78
2021/11/22 02:05:30;;;;;;;4.13;3.37;;;4.70;99.90;;;;;;6181471;23;20182;-79
2021/11/22 02:07:57;;;;;;;5.00;3.63;;;4.70;99.90;;;;;;6181310;23;20162;-79
2021/11/22 02:10:24;;;;;;;4.73;3.10;;;4.80;99.90;;;;;;6181433;23;20162;-79
2021/11/22 02:12:50;;;;;;;4.53;3.37;;;4.80;99.90;;;;;;6181527;23;20162;-79
2021/11/22 02:15:17;;;;;;;3.87;3.40;;;4.90;99.90;;;;;;6181523;23;20201;-79
2021/11/22 02:17:45;;;;;;;3.73;3.37;;;4.80;99.90;;;;;;6182100;23;20486;-80
2021/11/22 02:20:26;;;;;;;6.17;3.40;;;4.90;99.90;;;;;;6181654;23;20209;-78
2021/11/22 02:22:55;;;;;;;4.67;3.63;;;4.90;99.90;;;;;;6181305;23;20155;-80
2021/11/22 02:25:23;;;;;;;4.00;3.30;;;4.80;99.90;;;;;;6208116;23;20170;-81
2021/11/22 02:27:49;;;;;;;5.27;3.60;;;4.70;99.90;;;;;;6181466;23;20169;-78
2021/11/22 02:30:18;;;;;;;4.33;3.53;;;4.70;99.90;;;;;;6208015;23;20180;-78
2021/11/22 02:32:45;;;;;;;3.57;3.13;;;4.70;99.90;;;;;;6207972;23;20606;-78
2021/11/22 02:35:18;;;;;;;5.53;3.73;;;4.70;99.90;;;;;;6181473;23;20185;-78
2021/11/22 02:37:44;;;;;;;5.20;3.20;;;4.60;99.90;;;;;;6181307;23;20146;-80
2021/11/22 02:40:11;;;;;;;4.10;3.70;;;4.50;99.90;;;;;;6207892;23;20177;-78
2021/11/22 02:42:41;;;;;;;4.50;3.30;;;4.50;99.90;;;;;;6208042;23;20162;-80
2021/11/22 02:45:09;;;;;;;6.30;3.80;;;4.50;99.90;;;;;;6208287;23;20638;-81
2021/11/22 02:47:34;;;;;;;7.57;3.70;;;4.40;99.90;;;;;;6208099;23;20165;-82
2021/11/22 02:50:01;;;;;;;4.63;3.20;;;4.40;99.90;;;;;;6181709;23;20563;-82
2021/11/22 02:52:26;;;;;;;5.33;3.20;;;4.40;99.90;;;;;;6181569;23;20166;-82
2021/11/22 02:54:52;;;;;;;5.33;3.70;;;4.40;99.90;;;;;;6181023;23;20247;-81
2021/11/22 02:57:17;;;;;;;5.37;3.77;;;4.50;99.90;;;;;;6208047;23;20617;-78
2021/11/22 02:59:43;;;;;;;5.00;3.50;;;4.50;99.90;;;;;;6181226;23;20162;-81
2021/11/22 03:02:12;;;;;;;3.97;3.50;;;4.60;99.90;;;;;;6208293;23;20190;-80
2021/11/22 03:04:39;;;;;;;3.47;2.97;;;4.60;99.90;;;;;;6180987;23;20186;-77
2021/11/22 03:07:05;;;;;;;4.97;3.07;;;4.60;99.90;;;;;;6182101;23;20158;-78
2021/11/22 03:09:32;;;;;;;3.80;2.93;;;4.60;99.90;;;;;;6181029;23;20624;-79
2021/11/22 03:12:00;;;;;;;4.40;3.00;;;4.60;99.90;;;;;;6181250;23;20205;-79
2021/11/22 03:14:26;;;;;;;4.03;3.20;;;4.60;99.90;;;;;;6181052;23;20225;-79
2021/11/22 03:16:55;;;;;;;3.97;2.73;;;4.60;99.90;;;;;;6181568;23;20186;-79
2021/11/22 03:19:22;;;;;;;4.83;3.10;;;4.60;99.90;;;;;;6181196;23;20165;-80
2021/11/22 03:21:48;;;;;;;4.90;2.30;;;4.50;99.90;;;;;;6183321;23;20603;-79
2021/11/22 03:24:13;;;;;;;3.00;2.70;;;4.60;99.90;;;;;;6181118;23;20236;-80
2021/11/22 03:26:39;;;;;;;3.33;2.67;;;4.60;99.90;;;;;;6207430;23;20165;-77
2021/11/22 03:29:05;;;;;;;2.93;2.40;;;4.50;99.90;;;;;;6207877;23;20155;-79
2021/11/22 03:31:32;;;;;;;4.43;2.50;;;4.60;99.90;;;;;;6180969;23;20177;-81
2021/11/22 03:33:59;;;;;;;5.13;2.70;;;4.60;99.90;;;;;;6181125;23;20277;-79
2021/11/22 03:36:25;;;;;;;2.40;2.20;;;4.60;99.90;;;;;;6181410;23;20155;-77
2021/11/22 03:38:51;;;;;;;3.10;2.80;;;4.60;99.90;;;;;;6181307;23;20168;-80
2021/11/22 03:41:18;;;;;;;3.77;2.73;;;4.60;99.90;;;;;;6180977;23;20158;-79
2021/11/22 03:43:50;;;;;;;5.17;2.60;;;4.60;99.90;;;;;;6181986;23;20231;-77
2021/11/22 03:46:18;;;;;;;2.70;2.50;;;4.50;99.90;;;;;;6183090;23;20598;-79
2021/11/22 03:48:44;;;;;;;4.23;2.67;;;4.50;99.90;;;;;;6183175;23;20204;-80
2021/11/22 03:51:10;;;;;;;3.53;2.33;;;4.40;99.90;;;;;;6182775;23;20566;-77
2021/11/22 03:53:36;;;;;;;2.70;2.50;;;4.40;99.90;;;;;;6183136;23;20182;-79
2021/11/22 03:56:02;;;;;;;2.60;2.37;;;4.40;99.90;;;;;;6183311;23;20216;-78
2021/11/22 03:58:27;;;;;;;3.13;2.30;;;4.40;99.90;;;;;;6210259;23;20154;-79
2021/11/22 04:00:53;;;;;;;3.27;2.30;;;4.30;99.90;;;;;;6209340;23;20182;-80
2021/11/22 04:03:19;;;;;;;2.87;2.23;;;4.40;99.90;;;;;;6182889;23;20348;-80
2021/11/22 04:05:45;;;;;;;3.60;2.00;;;4.40;99.90;;;;;;6182630;23;20212;-79
2021/11/22 04:08:10;;;;;;;2.60;2.20;;;4.30;99.90;;;;;;6182029;23;20155;-80
2021/11/22 04:10:37;;;;;;;2.30;2.07;;;4.30;99.90;;;;;;6182065;23;20154;-79
2021/11/22 04:13:04;;;;;;;2.87;2.37;;;4.30;99.90;;;;;;6182367;23;20158;-78
2021/11/22 04:15:30;;;;;;;2.63;2.23;;;4.20;99.90;;;;;;6183024;23;20209;-79
2021/11/22 04:17:56;;;;;;;2.53;2.07;;;4.30;99.90;;;;;;6182819;23;20154;-80
2021/11/22 04:20:22;;;;;;;2.63;1.83;;;4.20;99.90;;;;;;6208970;23;20162;-79
2021/11/22 04:22:47;;;;;;;2.63;2.03;;;4.20;99.90;;;;;;6182363;23;20182;-79
2021/11/22 04:25:13;;;;;;;2.47;2.00;;;4.20;99.90;;;;;;6182640;23;20182;-77
2021/11/22 04:27:39;;;;;;;2.00;1.77;;;4.20;99.90;;;;;;6209364;23;20233;-81
2021/11/22 04:30:08;;;;;;;4.07;2.00;;;4.20;99.90;;;;;;6208819;23;20235;-80
2021/11/22 04:32:33;;;;;;;3.23;2.20;;;4.20;99.90;;;;;;6182721;23;20184;-79
2021/11/22 04:34:59;;;;;;;2.30;2.00;;;4.20;99.90;;;;;;6182673;23;20214;-77
2021/11/22 04:37:29;;;;;;;2.37;2.17;;;4.20;99.90;;;;;;6182201;23;20189;-78
2021/11/22 04:39:55;;;;;;;3.27;2.27;;;4.30;99.90;;;;;;6208331;23;20150;-81
2021/11/22 04:42:21;;;;;;;2.17;1.90;;;4.30;99.90;;;;;;6182189;23;20193;-80
2021/11/22 04:44:47;;;;;;;2.73;2.00;;;4.30;99.90;;;;;;6181669;23;20240;-80
2021/11/22 04:47:13;;;;;;;3.30;2.30;;;4.40;99.90;;;;;;6182027;23;20162;-77
2021/11/22 04:49:39;;;;;;;2.77;2.20;;;4.30;99.90;;;;;;6181658;23;20173;-78
2021/11/22 04:52:07;;;;;;;2.47;2.00;;;4.40;99.90;;;;;;6182075;23;20287;-77
2021/11/22 04:54:34;;;;;;;3.03;2.20;;;4.30;99.90;;;;;;6208017;23;20182;-78
2021/11/22 04:57:02;;;;;;;3.60;2.70;;;4.40;99.90;;;;;;6207942;23;20954;-79
2021/11/22 04:59:28;;;;;;;3.00;2.37;;;4.30;99.90;;;;;;6180604;23;20154;-78
2021/11/22 05:01:53;;;;;;;3.77;2.40;;;4.30;99.90;;;;;;6181874;23;20157;-77
2021/11/22 05:04:19;;;;;;;2.67;2.40;;;4.30;99.90;;;;;;6206678;23;20174;-78
2021/11/22 05:06:44;;;;;;;2.90;2.60;;;4.20;99.90;;;;;;6181218;23;20158;-82
2021/11/22 05:09:10;;;;;;;3.70;2.70;;;4.30;99.90;;;;;;6206019;23;20196;-80
2021/11/22 05:11:35;;;;;;;3.20;2.70;;;4.40;99.90;;;;;;6180750;23;20170;-80
2021/11/22 05:14:01;;;;;;;3.10;2.67;;;4.40;99.90;;;;;;6180275;23;20664;-81
2021/11/22 05:16:27;;;;;;;4.13;2.97;;;4.40;99.90;;;;;;6208043;23;20197;-81
2021/11/22 05:18:52;;;;;;;4.90;2.97;;;4.40;99.90;;;;;;6208520;23;20158;-77
2021/11/22 05:21:18;;;;;;;6.20;3.27;;;4.40;99.90;;;;;;6181854;23;20166;-79
2021/11/22 05:23:43;;;;;;;4.27;3.30;;;4.50;99.90;;;;;;6181558;23;20212;-81
2021/11/22 05:26:09;;;;;;;5.50;3.07;;;4.40;99.90;;;;;;6208611;23;20636;-78
2021/11/22 05:28:35;;;;;;;4.40;3.67;;;4.40;99.90;;;;;;6182374;23;20162;-80
2021/11/22 05:31:00;;;;;;;5.30;3.50;;;4.40;99.90;;;;;;6182050;23;20537;-82
2021/11/22 05:33:26;;;;;;;4.40;3.53;;;4.30;99.90;;;;;;6182360;23;20633;-78
2021/11/22 05:35:52;;;;;;;4.67;3.40;;;4.30;99.90;;;;;;6182199;23;20165;-80
2021/11/22 05:38:17;;;;;;;4.77;3.40;;;4.20;99.90;;;;;;6182405;23;20154;-78
2021/11/22 05:40:43;;;;;;;12.97;3.63;;;4.10;99.90;;;;;;6181740;23;20658;-80
2021/11/22 05:43:08;;;;;;;6.33;4.27;;;4.10;99.90;;;;;;6181897;23;20220;-79
2021/11/22 05:45:34;;;;;;;5.63;4.77;;;4.10;99.90;;;;;;6182210;23;20517;-80
2021/11/22 05:48:00;;;;;;;4.83;3.70;;;4.00;99.90;;;;;;6210039;23;20702;-78
2021/11/22 05:50:26;;;;;;;6.13;5.00;;;3.90;99.90;;;;;;6209020;23;20181;-77
2021/11/22 05:52:53;;;;;;;4.53;3.50;;;3.90;99.90;;;;;;6209539;23;20162;-78
2021/11/22 05:55:34;;;;;;;5.97;3.80;;;3.90;99.90;;;;;;6208913;23;20186;-80
2021/11/22 05:58:02;;;;;;;7.27;4.50;;;3.90;99.90;;;;;;6209116;23;20166;-82
2021/11/22 06:00:28;;;;;;;5.60;3.90;;;3.90;99.90;;;;;;6208685;23;20193;-81
2021/11/22 06:02:53;;;;;;;4.67;3.83;;;3.90;99.90;;;;;;6181613;23;20228;-78
2021/11/22 06:05:19;;;;;;;5.13;3.43;;;3.90;99.90;;;;;;6181977;23;20208;-82
2021/11/22 06:07:44;;;;;;;6.47;3.77;;;3.90;99.90;;;;;;6208826;23;20157;-81
2021/11/22 06:10:10;;;;;;;4.37;3.77;;;3.90;99.90;;;;;;6181897;23;20208;-78
2021/11/22 06:12:36;;;;;;;6.63;3.83;;;3.90;99.90;;;;;;6208490;23;20158;-78
2021/11/22 06:15:02;;;;;;;4.50;4.00;;;4.00;99.90;;;;;;6208745;23;20190;-79
2021/11/22 06:17:28;;;;;;;5.63;4.17;;;3.90;99.90;;;;;;6208592;23;20234;-78
2021/11/22 06:19:54;;;;;;;5.93;4.40;;;3.90;99.90;;;;;;6181917;23;20231;-79
2021/11/22 06:22:20;;;;;;;6.43;4.30;;;3.90;99.90;;;;;;6181806;23;20166;-79
2021/11/22 06:24:46;;;;;;;5.67;4.13;;;3.80;99.90;;;;;;6173228;23;20178;-79
2021/11/22 06:27:14;;;;;;;5.50;4.10;;;3.80;99.90;;;;;;6180887;23;20252;-79
2021/11/22 06:29:39;;;;;;;5.53;4.60;;;3.70;99.90;;;;;;6179668;23;20170;-79
2021/11/22 06:32:12;;;;;;;5.57;4.53;;;3.60;99.90;;;;;;6180419;23;20189;-79
2021/11/22 06:34:39;;;;;;;6.00;4.57;;;3.60;99.90;;;;;;6180223;23;20273;-79
2021/11/22 06:37:05;;;;;;;7.07;5.20;;;3.50;99.90;;;;;;6207958;23;20150;-80
2021/11/22 06:39:30;;;;;;;9.73;5.70;;;3.50;99.90;;;;;;6181137;23;20558;-80
2021/11/22 06:41:56;;;;;;;6.00;4.73;;;3.50;99.90;;;;;;6181789;23;20189;-77
2021/11/22 06:44:22;;;;;;;7.17;4.67;;;3.40;99.90;;;;;;6179024;23;20837;-79
2021/11/22 06:46:48;;;;;;;5.27;3.80;;;3.40;99.90;;;;;;6181545;23;20175;-78
2021/11/22 06:49:19;;;;;;;5.50;4.40;;;3.30;99.90;;;;;;6181562;23;20245;-78
2021/11/22 06:51:48;;;;;;;5.97;4.23;;;3.30;99.90;;;;;;6177825;23;20146;-79
2021/11/22 06:54:14;;;;;;;6.07;4.17;;;3.30;99.90;;;;;;6177307;23;20197;-80
2021/11/22 06:56:40;;;;;;;6.03;4.40;;;3.30;99.90;;;;;;6177887;23;20172;-79
2021/11/22 06:59:05;;;;;;;7.07;4.87;;;3.20;99.90;;;;;;6177999;23;20162;-80
2021/11/22 07:01:31;;;;;;;6.83;4.67;;;3.20;99.90;;;;;;6177554;23;20159;-80
2021/11/22 07:03:57;;;;;;;5.53;4.17;;;3.30;99.90;;;;;;6176932;23;20234;-77
2021/11/22 07:06:22;;;;;;;5.97;4.67;;;3.30;99.90;;;;;;6206203;23;20204;-78
2021/11/22 07:08:48;;;;;;;6.93;4.53;;;3.30;99.90;;;;;;6208575;23;20206;-78
2021/11/22 07:11:13;;;;;;;6.27;4.60;;;3.30;99.90;;;;;;6181577;23;20177;-77
2021/11/22 07:13:39;;;;;;;7.47;4.60;;;3.30;99.90;;;;;;6181631;23;20186;-78
2021/11/22 07:16:05;;;;;;;8.13;4.20;;;3.40;99.90;;;;;;6208822;23;20200;-80
2021/11/22 07:18:31;;;;;;;4.93;3.87;;;3.40;99.90;;;;;;6209755;23;20158;-80
2021/11/22 07:20:58;;;;;;;6.00;4.27;;;3.50;99.90;;;;;;6184320;23;20216;-79
2021/11/22 07:23:25;;;;;;;6.77;4.43;;;3.50;99.90;;;;;;6183625;23;20154;-80
2021/11/22 07:25:55;;;;;;;7.10;5.00;;;3.40;99.90;;;;;;6210900;23;20215;-81
2021/11/22 07:28:22;;;;;;;7.40;4.47;;;3.40;99.90;;;;;;6187026;23;20162;-78
2021/11/22 07:30:48;;;;;;;7.10;4.93;;;3.40;99.90;;;;;;6184181;23;20162;-81
2021/11/22 07:33:14;;;;;;;6.70;4.60;;;3.40;99.90;;;;;;6210152;23;20157;-78
2021/11/22 07:35:41;;;;;;;4.97;4.13;;;3.50;99.90;;;;;;6210991;23;20178;-77
2021/11/22 07:38:07;;;;;;;7.20;4.43;;;3.40;99.90;;;;;;6184036;23;20241;-78
2021/11/22 07:40:33;;;;;;;4.53;3.93;;;3.50;99.90;;;;;;6183402;23;20241;-79
2021/11/22 07:42:59;;;;;;;7.53;4.40;;;3.40;99.90;;;;;;6181393;23;20190;-79
2021/11/22 07:45:25;;;;;;;6.00;4.53;;;3.50;99.90;;;;;;6178875;23;20186;-80
2021/11/22 07:47:52;;;;;;;5.30;3.57;;;3.50;99.90;;;;;;6206850;23;20154;-78
2021/11/22 07:50:19;;;;;;;5.00;3.43;;;3.60;99.90;;;;;;6205056;23;20154;-79
2021/11/22 07:52:45;;;;;;;4.63;3.83;;;3.50;99.90;;;;;;6204824;23;20159;-79
2021/11/22 07:55:11;;;;;;;5.80;3.57;;;3.60;99.90;;;;;;6179414;23;20560;-77
2021/11/22 07:57:37;;;;;;;5.60;3.87;;;3.60;99.90;;;;;;6204109;23;20220;-80
2021/11/22 08:00:05;;;;;;;4.53;3.23;;;3.60;99.90;;;;;;6204661;23;20212;-80
2021/11/22 08:02:31;;;;;;;5.03;3.77;;;3.60;99.90;;;;;;6209066;23;20151;-81
2021/11/22 08:04:57;;;;;;;4.07;3.63;;;3.50;99.90;;;;;;6182152;23;20512;-78
2021/11/22 08:07:22;;;;;;;5.37;3.87;;;3.50;99.90;;;;;;6209179;23;20154;-79
2021/11/22 08:12:27;;;;;;;4.63;3.63;;;3.40;99.90;;;;;;6219445;23;20166;-78
2021/11/22 08:15:02;;;;;;;5.97;4.40;;;3.30;99.90;;;;;;6206617;23;20190;-79
2021/11/22 08:17:29;;;;;;;5.10;3.53;;;3.20;99.90;;;;;;6182416;23;20208;-79
2021/11/22 08:19:57;;;;;;;8.17;4.97;;;3.20;99.90;;;;;;6208687;23;20658;-79
2021/11/22 08:22:24;;;;;;;7.73;5.60;;;3.10;99.90;;;;;;6182333;23;20166;-80
2021/11/22 08:24:53;;;;;;;9.77;7.90;;;3.00;99.90;;;;;;6181563;23;20254;-79
2021/11/22 08:27:24;;;;;;;13.67;9.17;;;3.10;99.90;;;;;;6208364;23;20222;-81
2021/11/22 08:29:50;;;;;;;13.10;9.80;;;3.20;99.90;;;;;;6208491;23;20168;-78
2021/11/22 08:32:17;;;;;;;7.03;4.47;;;3.30;99.90;;;;;;6208282;23;20160;-78
2021/11/22 08:34:42;;;;;;;4.60;3.93;;;3.30;99.90;;;;;;6181932;23;20238;-77
2021/11/22 08:37:08;;;;;;;4.43;3.20;;;3.40;99.90;;;;;;6182031;23;20155;-78
2021/11/22 08:39:34;;;;;;;4.87;3.77;;;3.30;99.90;;;;;;6182030;23;20497;-80
2021/11/22 08:42:00;;;;;;;3.73;3.00;;;3.30;99.90;;;;;;6208383;23;20237;-80
2021/11/22 08:44:25;;;;;;;6.00;4.40;;;3.40;99.90;;;;;;6173892;23;20694;-79
2021/11/22 08:46:51;;;;;;;4.87;3.77;;;3.50;99.90;;;;;;6206613;23;20148;-80
2021/11/22 08:49:17;;;;;;;4.07;3.60;;;3.50;99.90;;;;;;6206151;23;20399;-80
2021/11/22 08:51:44;;;;;;;5.00;4.00;;;3.40;99.90;;;;;;6174966;23;20208;-80
2021/11/22 08:54:11;;;;;;;4.43;3.50;;;3.50;99.90;;;;;;6176243;23;20253;-79
2021/11/22 08:56:36;;;;;;;5.20;3.10;;;3.60;99.90;;;;;;6176838;23;20201;-80
2021/11/22 08:59:03;;;;;;;4.63;3.13;;;3.60;99.90;;;;;;6176582;23;20158;-78
2021/11/22 09:01:29;;;;;;;3.33;3.00;;;3.60;99.90;;;;;;6176488;23;20597;-80
2021/11/22 09:03:56;;;;;;;5.17;2.70;;;3.50;99.90;;;;;;6176181;23;20280;-78
2021/11/22 09:06:21;;;;;;;3.87;2.50;;;3.60;99.90;;;;;;6176436;23;20161;-79
2021/11/22 09:08:47;;;;;;;6.43;2.20;;;3.50;99.90;;;;;;6180545;23;20162;-80
2021/11/22 09:11:15;;;;;;;3.80;2.70;;;3.50;99.90;;;;;;6181790;23;20166;-80
2021/11/22 09:13:40;;;;;;;3.37;2.70;;;3.60;99.90;;;;;;6180263;23;20186;-81
2021/11/22 09:16:07;;;;;;;2.33;1.93;;;3.60;99.90;;;;;;6180447;23;20158;-78
2021/11/22 09:18:33;;;;;;;4.33;2.00;;;3.60;99.90;;;;;;6207786;23;20157;-78
2021/11/22 09:20:58;;;;;;;3.23;2.40;;;3.60;99.90;;;;;;6208982;23;20236;-80
2021/11/22 09:23:24;;;;;;;2.37;1.90;;;3.70;99.90;;;;;;6182276;23;20253;-80
2021/11/22 09:25:52;;;;;;;2.47;1.97;;;3.80;99.90;;;;;;6183312;23;20536;-80
2021/11/22 09:28:20;;;;;;;2.53;2.20;;;3.90;99.90;;;;;;6183270;23;20158;-80
2021/11/22 09:30:46;;;;;;;3.33;2.03;;;3.90;99.90;;;;;;6209572;23;20151;-80
2021/11/22 09:33:13;;;;;;;3.67;2.00;;;4.00;99.90;;;;;;6181834;23;20210;-78
2021/11/22 09:35:40;;;;;;;2.43;1.90;;;4.10;99.90;;;;;;6206266;23;20186;-78
2021/11/22 09:38:06;;;;;;;1.80;1.57;;;4.30;99.90;;;;;;6206940;23;20154;-77
2021/11/22 09:40:34;;;;;;;2.83;2.00;;;4.40;99.90;;;;;;6205597;23;20794;-80
2021/11/22 09:43:00;;;;;;;1.53;1.23;;;4.30;99.90;;;;;;6179258;23;20166;-79
2021/11/22 09:45:28;;;;;;;1.10;1.00;;;4.30;99.90;;;;;;6179450;23;20189;-80
2021/11/22 09:47:55;;;;;;;3.20;1.50;;;4.30;99.90;;;;;;6179121;23;20166;-79
2021/11/22 09:50:21;;;;;;;1.97;1.37;;;4.50;99.90;;;;;;6206471;23;20185;-79
2021/11/22 09:52:47;;;;;;;1.80;1.40;;;4.50;99.90;;;;;;6205427;23;20158;-80
2021/11/22 09:55:12;;;;;;;1.50;1.40;;;4.60;99.90;;;;;;6178619;23;20925;-80
2021/11/22 09:57:38;;;;;;;1.97;1.30;;;4.60;99.90;;;;;;6179995;23;20167;-79
2021/11/22 10:00:06;;;;;;;3.37;2.00;;;4.70;99.90;;;;;;6179406;23;20184;-81
2021/11/22 10:02:55;;;;;;;1.50;1.10;;;4.70;99.90;;;;;;6205776;23;20785;-80
2021/11/22 10:05:31;;;;;;;2.63;1.70;;;4.70;99.90;;;;;;6179593;23;20729;-79
2021/11/22 10:08:16;;;;;;;2.77;1.40;;;4.70;99.90;;;;;;6180120;23;20180;-77
2021/11/22 10:10:51;;;;;;;1.87;1.30;;;4.80;99.90;;;;;;6178994;23;20193;-80
2021/11/22 10:13:34;;;;;;;2.03;1.23;;;4.80;99.90;;;;;;6179470;23;20181;-81
2021/11/22 10:16:12;;;;;;;2.20;1.27;;;4.80;99.90;;;;;;6179256;23;20215;-80
2021/11/22 10:18:53;;;;;;;1.90;0.83;;;4.90;99.90;;;;;;6179238;23;20205;-79
2021/11/22 10:21:28;;;;;;;1.30;1.10;;;4.90;99.90;;;;;;6178815;23;20250;-79
2021/11/22 10:24:01;;;;;;;2.47;0.83;;;5.00;99.90;;;;;;6206068;23;20224;-78
2021/11/22 10:26:35;;;;;;;0.97;0.63;;;5.00;99.90;;;;;;6179138;23;20610;-83
2021/11/22 10:29:01;;;;;;;95.63;36.60;;;5.10;99.90;;;;;;6206143;23;20534;-81
2021/11/22 10:31:27;;;;;;;4.80;2.60;;;5.10;99.90;;;;;;6205686;23;20497;-80
2021/11/22 10:33:57;;;;;;;1.67;0.90;;;5.10;99.90;;;;;;6178898;23;20269;-80
2021/11/22 10:36:24;;;;;;;1.70;0.90;;;5.20;99.90;;;;;;6179054;23;20158;-80
2021/11/22 10:38:57;;;;;;;3.03;2.30;;;5.20;99.90;;;;;;6205792;23;20162;-78
2021/11/22 10:41:22;;;;;;;2.57;0.90;;;5.40;99.90;;;;;;6179735;23;20162;-80
2021/11/22 10:43:52;;;;;;;1.20;1.10;;;5.40;99.90;;;;;;6205603;23;20515;-80
2021/11/22 10:46:29;;;;;;;11.60;8.53;;;5.30;99.90;;;;;;6205505;23;20584;-79
2021/11/22 10:49:57;;;;;;;2.97;2.50;;;5.30;99.90;;;;;;6179345;23;20142;-78
2021/11/22 10:52:17;;;;;;;1.50;1.37;;;5.30;99.90;;;;;;6198883;23;20158;-79
2021/11/22 10:54:54;;;;;;;2.03;0.70;;;5.30;99.90;;;;;;6180577;23;20656;-80
2021/11/22 10:57:20;;;;;;;4.73;3.70;;;5.30;99.90;;;;;;6207836;23;20232;-80
2021/11/22 10:59:46;;;;;;;1.17;1.07;;;5.30;99.90;;;;;;6179755;23;20158;-79
2021/11/22 11:02:11;;;;;;;1.47;0.70;;;5.30;99.90;;;;;;6179894;23;20598;-78
2021/11/22 11:04:43;;;;;;;0.60;0.53;;;5.30;99.90;;;;;;6181385;23;20182;-79
2021/11/22 11:07:10;;;;;;;1.13;0.70;;;5.40;99.90;;;;;;6182094;23;20158;-79
2021/11/22 11:09:38;;;;;;;1.33;0.80;;;5.40;99.90;;;;;;6181149;23;20519;-80
2021/11/22 11:12:15;;;;;;;2.53;0.60;;;5.30;99.90;;;;;;6181664;23;20226;-80
2021/11/22 11:14:47;;;;;;;2.20;0.90;;;5.30;99.90;;;;;;6181490;23;20201;-81
2021/11/22 11:17:21;;;;;;;1.43;0.97;;;5.50;99.90;;;;;;6207257;23;20196;-79
2021/11/22 11:19:49;;;;;;;1.67;0.70;;;5.50;99.90;;;;;;6206310;23;20140;-78
2021/11/22 11:22:15;;;;;;;1.10;0.57;;;5.60;99.90;;;;;;6181231;23;20165;-78
2021/11/22 11:24:41;;;;;;;1.13;0.60;;;5.50;99.90;;;;;;6181020;23;20182;-80
2021/11/22 11:27:07;;;;;;;3.70;1.80;;;5.40;99.90;;;;;;6207748;23;20473;-80
2021/11/22 11:29:35;;;;;;;4.90;2.57;;;5.30;99.90;;;;;;6180891;23;20274;-79
2021/11/22 11:32:00;;;;;;;1.43;0.90;;;5.30;99.90;;;;;;6207916;23;20186;-82
2021/11/22 11:34:34;;;;;;;0.70;0.70;;;5.40;99.90;;;;;;6179979;23;20192;-82
2021/11/22 11:37:07;;;;;;;0.60;0.43;;;5.50;99.90;;;;;;6180902;23;20151;-77
2021/11/22 11:40:14;;;;;;;1.03;0.90;;;5.50;99.90;;;;;;6207612;23;20151;-82
2021/11/22 11:43:03;;;;;;;2.17;1.00;;;5.50;99.90;;;;;;6131706;23;20295;-80
2021/11/22 11:45:34;;;;;;;2.20;0.70;;;5.60;99.90;;;;;;6181353;23;20347;-79
2021/11/22 11:48:30;;;;;;;4.07;2.17;;;5.60;99.90;;;;;;6207684;23;20494;-81
2021/11/22 11:51:12;;;;;;;3.00;1.73;;;5.60;99.90;;;;;;6181209;23;20201;-81
2021/11/22 11:53:58;;;;;;;1.33;0.40;;;5.60;99.90;;;;;;6207716;23;20638;-79
2021/11/22 11:56:29;;;;;;;0.50;0.50;;;5.60;99.90;;;;;;6180996;23;20241;-78
2021/11/22 11:59:30;;;;;;;2.20;0.50;;;5.60;99.90;;;;;;6208488;23;20139;-80
2021/11/22 12:02:01;;;;;;;1.57;0.50;;;5.60;99.90;;;;;;6207624;23;20481;-79
2021/11/22 12:04:29;;;;;;;0.50;0.50;;;5.60;99.90;;;;;;6180894;23;20419;-79
2021/11/22 12:07:00;;;;;;;0.87;0.70;;;5.50;99.90;;;;;;6208171;23;20165;-79
2021/11/22 12:09:35;;;;;;;1.17;0.60;;;5.60;99.90;;;;;;6180361;23;20496;-80
2021/11/22 12:12:20;;;;;;;3.13;1.13;;;5.60;99.90;;;;;;6180809;23;20162;-78
2021/11/22 12:15:01;;;;;;;0.63;0.50;;;5.50;99.90;;;;;;6208292;23;20244;-77
2021/11/22 12:17:36;;;;;;;0.70;0.70;;;5.50;99.90;;;;;;6180552;23;20158;-79
2021/11/22 12:20:11;;;;;;;2.10;1.00;;;5.60;99.90;;;;;;6206136;23;20154;-80
2021/11/22 12:22:50;;;;;;;1.50;0.80;;;5.60;99.90;;;;;;6179173;23;20204;-78
2021/11/22 12:25:43;;;;;;;2.00;0.93;;;5.50;99.90;;;;;;6206356;23;20181;-79
2021/11/22 12:28:22;;;;;;;4.63;1.13;;;5.50;99.90;;;;;;6178356;23;20151;-82
2021/11/22 12:30:53;;;;;;;3.13;1.00;;;5.50;99.90;;;;;;6178856;23;20162;-79
2021/11/22 12:33:24;;;;;;;0.93;0.53;;;5.60;99.90;;;;;;6179060;23;20284;-84
2021/11/22 12:35:53;;;;;;;2.00;1.43;;;5.60;99.90;;;;;;6204642;23;20376;-81
2021/11/22 12:38:21;;;;;;;1.70;0.60;;;5.50;99.90;;;;;;6178956;23;20493;-82
2021/11/22 12:40:48;;;;;;;1.33;0.77;;;5.70;99.90;;;;;;6178058;23;20162;-81
2021/11/22 12:43:14;;;;;;;0.70;0.63;;;5.60;99.90;;;;;;6205479;23;20157;-79
2021/11/22 12:45:59;;;;;;;2.67;0.93;;;5.60;99.90;;;;;;6178186;23;20244;-81
2021/11/22 12:48:36;;;;;;;1.20;0.70;;;5.60;99.90;;;;;;6205612;23;20188;-81
2021/11/22 12:51:05;;;;;;;0.50;0.40;;;5.60;99.90;;;;;;6180238;23;20203;-83
2021/11/22 12:53:31;;;;;;;8.67;4.00;;;5.60;99.90;;;;;;6177724;23;20205;-82
2021/11/22 12:55:57;;;;;;;6.10;2.60;;;5.60;99.90;;;;;;6178739;23;20193;-81
2021/11/22 12:58:25;;;;;;;2.37;1.00;;;5.40;99.90;;;;;;6205826;23;20208;-82
2021/11/22 13:00:53;;;;;;;2.27;1.10;;;5.30;99.90;;;;;;6179288;23;20603;-81
2021/11/22 13:03:23;;;;;;;1.47;1.03;;;5.40;99.90;;;;;;6178702;23;20244;-79
2021/11/22 13:06:07;;;;;;;1.33;1.10;;;5.40;99.90;;;;;;6179881;23;20157;-81